Time;durP1;ratioP1;P1;durP2;ratioP2;P2;SDS_P1;SDS_P2;PMS_P1;PMS_P2;Temp;Humidity;BMP_temperature;BMP_pressure;BME280_temperature;BME280_humidity;BME280_pressure;Samples;Min_cycle;Max_cycle;Signal;HPM_P1;HPM_P2
2023/08/04 00:00:22;;;;;;;9.73;7.85;;;;;;;24.21;67.93;94207.22;5072790;28;20329;-73
2023/08/04 00:02:50;;;;;;;11.25;7.65;;;;;;;24.16;69.01;94204.16;5071352;28;20574;-74
2023/08/04 00:05:17;;;;;;;10.70;6.93;;;;;;;24.07;68.00;94208.25;5072070;28;20252;-74
2023/08/04 00:07:44;;;;;;;9.55;7.20;;;;;;;24.07;69.10;94204.72;5069960;28;20210;-74
2023/08/04 00:10:11;;;;;;;12.18;7.72;;;;;;;24.10;70.31;94209.41;5069458;28;20213;-73
2023/08/04 00:12:38;;;;;;;9.85;7.57;;;;;;;23.99;68.85;94204.06;5069663;28;20356;-74
2023/08/04 00:15:06;;;;;;;9.52;7.65;;;;;;;23.96;68.25;94210.47;5069475;28;20570;-74
2023/08/04 00:17:35;;;;;;;11.68;8.45;;;;;;;23.92;68.96;94204.19;5062889;28;20677;-74
2023/08/04 00:20:04;;;;;;;10.20;9.05;;;;;;;23.89;69.93;94198.75;5068802;28;20607;-74
2023/08/04 00:22:31;;;;;;;9.63;7.72;;;;;;;23.87;70.02;94209.44;5069799;28;20203;-74
2023/08/04 00:24:57;;;;;;;11.32;9.43;;;;;;;23.82;70.95;94210.72;5069289;28;20924;-74
2023/08/04 00:27:24;;;;;;;10.00;7.97;;;;;;;23.81;71.19;94208.38;5069429;28;20256;-74
2023/08/04 00:29:51;;;;;;;12.52;7.88;;;;;;;23.79;70.50;94211.53;5066422;28;20203;-74
2023/08/04 00:32:18;;;;;;;10.40;9.30;;;;;;;23.87;70.64;94201.16;5069131;28;20277;-74
2023/08/04 00:34:44;;;;;;;10.00;7.50;;;;;;;23.78;70.98;94207.22;5069163;28;20301;-74
2023/08/04 00:37:12;;;;;;;10.45;7.60;;;;;;;23.79;71.00;94208.78;5066442;28;20490;-73
2023/08/04 00:39:41;;;;;;;14.65;7.95;;;;;;;23.73;70.81;94208.50;5070243;28;20943;-74
2023/08/04 00:42:08;;;;;;;10.73;9.63;;;;;;;23.72;71.08;94206.16;5069082;28;20197;-75
2023/08/04 00:44:36;;;;;;;10.50;9.40;;;;;;;23.70;71.70;94209.34;5068984;28;20195;-74
2023/08/04 00:47:03;;;;;;;11.68;9.73;;;;;;;23.63;71.77;94211.47;5070758;28;20235;-73
2023/08/04 00:49:30;;;;;;;12.05;8.18;;;;;;;23.57;72.05;94215.91;5069061;28;20658;-74
2023/08/04 00:51:57;;;;;;;10.05;8.23;;;;;;;23.44;72.62;94210.16;5069300;28;20231;-74
2023/08/04 00:54:25;;;;;;;9.52;7.65;;;;;;;23.46;72.83;94215.25;5069117;28;20199;-74
2023/08/04 00:56:54;;;;;;;10.93;8.52;;;;;;;23.41;72.83;94219.28;5068386;28;20237;-74
2023/08/04 00:59:20;;;;;;;10.00;7.32;;;;;;;23.53;71.85;94215.94;5067829;28;20294;-74
2023/08/04 01:01:49;;;;;;;12.27;8.00;;;;;;;23.48;71.75;94208.13;5074387;28;20260;-74
2023/08/04 01:04:16;;;;;;;10.00;7.85;;;;;;;23.43;72.55;94216.09;5067002;28;20203;-73
2023/08/04 01:06:55;;;;;;;11.90;7.85;;;;;;;23.44;71.51;94212.13;5068589;28;20230;-74
2023/08/04 01:09:34;;;;;;;11.60;8.02;;;;;;;23.42;71.08;94204.25;5067483;28;20518;-74
2023/08/04 01:12:10;;;;;;;9.70;7.20;;;;;;;23.42;71.66;94209.78;5066948;28;20277;-74
2023/08/04 01:14:39;;;;;;;14.95;9.52;;;;;;;23.38;72.44;94209.84;5068750;28;20222;-74
2023/08/04 01:17:25;;;;;;;10.52;7.30;;;;;;;23.33;72.57;94209.53;5068340;28;20223;-73
2023/08/04 01:19:52;;;;;;;11.52;7.60;;;;;;;23.29;72.42;94201.31;5064675;28;20195;-73
2023/08/04 01:22:21;;;;;;;11.27;8.02;;;;;;;23.30;72.96;94213.16;5067952;28;20225;-74
2023/08/04 01:24:48;;;;;;;13.68;7.80;;;;;;;23.21;73.27;94208.16;5068606;28;20233;-73
2023/08/04 01:27:19;;;;;;;11.55;7.72;;;;;;;23.22;73.80;94206.97;5068665;28;20217;-74
2023/08/04 01:29:46;;;;;;;9.10;7.40;;;;;;;23.22;73.81;94206.97;5068348;28;20273;-74
2023/08/04 01:32:13;;;;;;;10.65;7.63;;;;;;;23.12;74.30;94207.88;5068244;28;20269;-75
2023/08/04 01:34:44;;;;;;;17.77;8.63;;;;;;;23.13;74.35;94212.22;5068144;28;20202;-75
2023/08/04 01:37:11;;;;;;;11.07;8.45;;;;;;;23.12;74.19;94210.66;5067474;28;20651;-73
2023/08/04 01:39:40;;;;;;;12.00;8.48;;;;;;;23.06;74.09;94209.56;5068190;28;20198;-73
2023/08/04 01:42:07;;;;;;;9.77;7.55;;;;;;;23.12;73.75;94218.94;5065430;28;20233;-73
2023/08/04 01:44:33;;;;;;;10.77;9.13;;;;;;;23.12;74.29;94212.63;5068029;28;20337;-73
2023/08/04 01:47:00;;;;;;;10.98;7.53;;;;;;;23.06;73.70;94220.63;5070381;28;20207;-73
2023/08/04 01:49:27;;;;;;;13.40;7.85;;;;;;;22.99;73.86;94220.72;5068133;28;20206;-73
2023/08/04 01:51:54;;;;;;;10.27;8.30;;;;;;;22.95;73.82;94225.53;5068826;28;20226;-73
2023/08/04 01:54:21;;;;;;;12.60;8.25;;;;;;;22.89;75.09;94227.97;5068156;28;20213;-74
2023/08/04 01:56:49;;;;;;;10.20;7.63;;;;;;;22.91;75.47;94222.03;5068117;28;20593;-75
2023/08/04 01:59:16;;;;;;;12.43;8.40;;;;;;;22.89;75.96;94227.19;5063602;28;20675;-75
2023/08/04 02:01:42;;;;;;;16.10;8.23;;;;;;;22.84;76.59;94219.34;5072636;28;20269;-74
2023/08/04 02:04:09;;;;;;;13.65;10.68;;;;;;;22.85;77.13;94227.22;5070838;28;20271;-74
2023/08/04 02:06:36;;;;;;;10.27;7.85;;;;;;;22.87;76.55;94224.81;5072159;28;20199;-74
2023/08/04 02:09:03;;;;;;;16.15;8.30;;;;;;;22.80;75.14;94226.91;5079272;28;20264;-73
2023/08/04 02:11:31;;;;;;;12.48;7.88;;;;;;;22.76;75.12;94221.44;5072413;28;20684;-73
2023/08/04 02:14:00;;;;;;;10.10;7.63;;;;;;;22.78;74.43;94226.56;5072546;28;20218;-73
2023/08/04 02:16:26;;;;;;;10.02;7.38;;;;;;;22.78;74.31;94232.06;5071387;28;20202;-73
2023/08/04 02:19:01;;;;;;;10.88;8.05;;;;;;;22.80;72.85;94235.22;5071238;28;20705;-73
2023/08/04 02:21:28;;;;;;;11.82;10.10;;;;;;;22.77;72.41;94230.50;5071698;28;20200;-74
2023/08/04 02:23:55;;;;;;;10.48;8.00;;;;;;;22.76;74.06;94245.47;5071772;28;20944;-74
2023/08/04 02:26:22;;;;;;;12.23;8.07;;;;;;;22.77;75.61;94236.81;5071742;28;20256;-74
2023/08/04 02:28:50;;;;;;;14.65;8.30;;;;;;;22.70;76.16;94243.16;5071662;28;20199;-74
2023/08/04 02:31:18;;;;;;;10.05;7.80;;;;;;;22.63;76.44;94248.78;5063553;28;20196;-74
2023/08/04 02:33:45;;;;;;;10.10;7.65;;;;;;;22.63;76.20;94254.31;5075845;28;20854;-73
2023/08/04 02:36:12;;;;;;;10.52;7.57;;;;;;;22.67;73.90;94254.28;5072000;28;20818;-73
2023/08/04 02:38:39;;;;;;;10.23;7.78;;;;;;;22.65;73.65;94257.44;5071337;28;20226;-74
2023/08/04 02:41:09;;;;;;;10.27;7.90;;;;;;;22.61;75.64;94255.94;5072055;28;20202;-74
2023/08/04 02:43:36;;;;;;;12.07;9.50;;;;;;;22.58;75.93;94252.00;5076152;28;20645;-74
2023/08/04 02:46:03;;;;;;;13.27;8.05;;;;;;;22.51;76.81;94252.09;5077527;28;20206;-74
2023/08/04 02:48:32;;;;;;;12.98;8.45;;;;;;;22.30;78.92;94252.34;5072064;28;20265;-73
2023/08/04 02:51:01;;;;;;;13.20;8.93;;;;;;;22.26;78.29;94252.41;5071196;28;20214;-74
2023/08/04 02:53:28;;;;;;;9.50;7.00;;;;;;;22.24;78.23;94254.00;5067461;28;20199;-74
2023/08/04 02:55:55;;;;;;;9.77;7.53;;;;;;;22.23;77.53;94255.19;5071196;28;20658;-74
2023/08/04 02:58:22;;;;;;;11.82;9.40;;;;;;;22.18;77.25;94256.41;5071586;28;20284;-74
2023/08/04 03:00:49;;;;;;;11.80;8.75;;;;;;;22.15;77.08;94256.44;5071264;28;20199;-74
2023/08/04 03:03:16;;;;;;;14.93;9.98;;;;;;;22.28;77.95;94254.72;5068097;28;20187;-74
2023/08/04 03:05:44;;;;;;;11.23;8.52;;;;;;;22.25;78.76;94266.59;5071379;28;20837;-74
2023/08/04 03:08:11;;;;;;;11.02;8.18;;;;;;;22.29;78.80;94257.06;5071072;28;20560;-73
2023/08/04 03:10:41;;;;;;;11.52;8.32;;;;;;;22.32;79.17;94258.22;5071260;28;20214;-73
2023/08/04 03:13:07;;;;;;;15.05;8.57;;;;;;;22.37;79.16;94246.75;5071226;28;20300;-73
2023/08/04 03:15:34;;;;;;;10.73;8.15;;;;;;;22.28;79.37;94251.97;5073277;28;20202;-74
2023/08/04 03:18:01;;;;;;;12.20;8.88;;;;;;;22.26;79.57;94254.38;5070745;28;20272;-73
2023/08/04 03:20:30;;;;;;;12.13;8.73;;;;;;;22.25;78.58;94250.06;5070708;28;20195;-73
2023/08/04 03:23:01;;;;;;;15.93;8.18;;;;;;;22.29;78.51;94259.06;5070941;28;20327;-74
2023/08/04 03:25:28;;;;;;;11.20;8.20;;;;;;;22.28;78.03;94249.97;5070992;28;20202;-74
2023/08/04 03:27:55;;;;;;;12.52;8.45;;;;;;;22.24;77.59;94242.97;5070602;28;20199;-72
2023/08/04 03:30:22;;;;;;;10.52;8.40;;;;;;;22.35;77.21;94249.13;5070808;28;20207;-74
2023/08/04 03:32:49;;;;;;;10.77;8.70;;;;;;;22.51;77.47;94245.81;5069855;28;20709;-74
2023/08/04 03:35:15;;;;;;;12.70;8.57;;;;;;;22.74;76.71;94256.16;5068947;28;20646;-73
2023/08/04 03:37:42;;;;;;;11.05;8.30;;;;;;;22.96;75.66;94249.19;5070264;28;20223;-73
2023/08/04 03:40:11;;;;;;;13.70;9.00;;;;;;;23.16;74.63;94247.31;5070472;28;20202;-73
2023/08/04 03:42:39;;;;;;;12.70;10.35;;;;;;;23.36;73.55;94245.44;5070159;28;20666;-73
2023/08/04 03:45:07;;;;;;;11.57;8.73;;;;;;;23.74;71.94;94250.78;5070490;28;20191;-73
2023/08/04 03:47:34;;;;;;;12.20;8.63;;;;;;;23.94;70.89;94251.59;5068617;28;20218;-73
2023/08/04 03:50:01;;;;;;;12.93;8.95;;;;;;;24.22;70.17;94249.50;5070275;28;20215;-73
2023/08/04 03:52:28;;;;;;;13.13;8.43;;;;;;;24.50;68.40;94249.00;5070588;28;20206;-75
2023/08/04 03:54:58;;;;;;;11.43;9.77;;;;;;;24.93;66.74;94250.88;5069792;28;20566;-78
2023/08/04 03:57:26;;;;;;;10.80;7.68;;;;;;;25.67;62.60;94256.78;5070397;28;20199;-78
2023/08/04 03:59:54;;;;;;;14.57;10.65;;;;;;;26.61;62.02;94245.63;5074560;28;20258;-79
2023/08/04 04:02:21;;;;;;;14.05;10.30;;;;;;;27.37;59.98;94246.53;5071467;28;20198;-78
2023/08/04 04:04:48;;;;;;;13.13;9.85;;;;;;;27.83;58.17;94245.09;5070157;28;20191;-78
2023/08/04 04:07:15;;;;;;;11.95;10.10;;;;;;;28.51;56.09;94240.03;5070091;28;20195;-80
2023/08/04 04:09:51;;;;;;;10.05;7.53;;;;;;;29.25;53.89;94244.84;5070033;28;20199;-80
2023/08/04 04:12:17;;;;;;;11.27;9.65;;;;;;;29.63;52.74;94247.41;5065519;28;20595;-81
2023/08/04 04:14:45;;;;;;;12.32;8.13;;;;;;;29.68;52.40;94241.19;5069947;28;20199;-83
2023/08/04 04:17:12;;;;;;;10.48;8.02;;;;;;;30.06;51.46;94240.88;5069801;28;20699;-75
2023/08/04 04:19:40;;;;;;;10.40;8.07;;;;;;;30.32;50.62;94250.53;5069698;28;20240;-75
2023/08/04 04:22:09;;;;;;;12.27;9.95;;;;;;;30.48;50.31;94251.47;5069970;28;20276;-74
2023/08/04 04:24:36;;;;;;;11.35;9.18;;;;;;;30.39;50.70;94250.22;5069142;28;20226;-75
2023/08/04 04:27:03;;;;;;;12.13;9.02;;;;;;;30.61;50.64;94244.53;5068231;28;20199;-75
2023/08/04 04:29:29;;;;;;;10.68;9.57;;;;;;;31.24;49.31;94242.09;5071308;28;20203;-75
2023/08/04 04:31:58;;;;;;;11.85;9.90;;;;;;;31.39;48.48;94243.00;5077884;28;20326;-75
2023/08/04 04:34:24;;;;;;;12.75;9.98;;;;;;;32.17;46.55;94244.81;5068914;28;20194;-75
2023/08/04 04:36:51;;;;;;;12.10;9.45;;;;;;;32.49;45.43;94244.00;5069461;28;20713;-75
2023/08/04 04:39:18;;;;;;;13.38;9.88;;;;;;;32.42;46.21;94238.75;5069775;28;20292;-75
2023/08/04 04:41:45;;;;;;;13.07;9.68;;;;;;;33.08;44.33;94244.13;5069273;28;20199;-74
2023/08/04 04:44:12;;;;;;;11.32;9.57;;;;;;;33.76;42.44;94252.47;5069353;28;20203;-74
2023/08/04 04:46:39;;;;;;;12.02;9.57;;;;;;;34.32;42.38;94247.66;5079464;28;20251;-75
2023/08/04 04:49:07;;;;;;;11.02;9.63;;;;;;;33.87;42.99;94258.28;5070373;28;20211;-76
2023/08/04 04:51:34;;;;;;;10.50;9.10;;;;;;;34.44;41.33;94260.63;5075636;28;20211;-75
2023/08/04 04:54:00;;;;;;;11.15;9.38;;;;;;;34.82;40.87;94262.41;5069004;28;20794;-75
2023/08/04 04:56:27;;;;;;;12.13;9.60;;;;;;;34.19;41.16;94261.28;5069685;28;20195;-75
2023/08/04 04:58:54;;;;;;;12.05;10.25;;;;;;;33.27;42.63;94266.44;5069061;28;20238;-75
2023/08/04 05:01:21;;;;;;;12.95;11.02;;;;;;;33.73;42.15;94264.66;5071335;28;20207;-75
2023/08/04 05:03:48;;;;;;;13.90;10.55;;;;;;;34.18;41.59;94260.50;5068969;28;20195;-75
2023/08/04 05:06:16;;;;;;;12.40;10.50;;;;;;;33.34;43.05;94263.25;5069187;28;20556;-75
2023/08/04 05:08:42;;;;;;;12.55;10.52;;;;;;;34.22;41.16;94274.34;5069032;28;20286;-76
2023/08/04 05:11:09;;;;;;;15.68;10.57;;;;;;;35.63;39.12;94262.22;5068998;28;20233;-74
2023/08/04 05:13:36;;;;;;;12.30;9.90;;;;;;;35.79;39.06;94263.66;5068988;28;20223;-75
2023/08/04 05:16:04;;;;;;;13.63;10.57;;;;;;;36.57;37.07;94261.31;5068963;28;20249;-74
2023/08/04 05:18:33;;;;;;;12.05;9.63;;;;;;;36.64;37.02;94263.66;5068942;28;20234;-75
2023/08/04 05:21:00;;;;;;;12.00;9.73;;;;;;;37.28;36.00;94262.13;5068809;28;20207;-76
2023/08/04 05:23:28;;;;;;;13.65;10.27;;;;;;;37.42;35.58;94262.41;5073364;28;20217;-75
2023/08/04 05:25:57;;;;;;;13.18;10.65;;;;;;;37.96;34.65;94266.56;5069196;28;20191;-75
2023/08/04 05:28:32;;;;;;;11.65;10.43;;;;;;;38.19;34.31;94260.88;5069363;28;20202;-75
2023/08/04 05:31:08;;;;;;;11.45;10.35;;;;;;;37.43;35.04;94263.94;5066908;28;20312;-76
2023/08/04 05:33:34;;;;;;;13.18;10.90;;;;;;;37.51;35.08;94251.63;5068594;28;20227;-75
2023/08/04 05:36:04;;;;;;;12.60;10.27;;;;;;;37.96;35.25;94258.06;5068215;28;20306;-75
2023/08/04 05:38:35;;;;;;;11.27;10.18;;;;;;;37.95;33.92;94265.00;5064536;28;20223;-76
2023/08/04 05:41:02;;;;;;;12.38;10.45;;;;;;;36.65;35.78;94262.38;5068714;28;20202;-74
2023/08/04 05:43:29;;;;;;;13.00;10.05;;;;;;;37.26;35.57;94272.41;5069137;28;20203;-82
2023/08/04 05:46:02;;;;;;;13.23;10.32;;;;;;;37.60;34.38;94267.53;5069038;28;20217;-79
2023/08/04 05:48:29;;;;;;;10.95;9.85;;;;;;;37.77;33.91;94262.69;5062622;28;20203;-80
2023/08/04 05:50:57;;;;;;;11.45;9.50;;;;;;;35.75;36.81;94268.75;5075458;28;20279;-79
2023/08/04 05:53:24;;;;;;;13.13;10.52;;;;;;;33.70;40.66;94271.25;5068108;28;20199;-75
2023/08/04 05:55:52;;;;;;;16.40;10.60;;;;;;;34.53;41.06;94279.41;5068174;28;20563;-77
2023/08/04 05:58:19;;;;;;;18.48;11.05;;;;;;;36.39;37.44;94264.56;5068354;28;20234;-76
2023/08/04 06:00:46;;;;;;;19.95;11.30;;;;;;;38.01;34.50;94262.16;5065250;28;20619;-76
2023/08/04 06:03:13;;;;;;;14.80;10.80;;;;;;;39.06;32.57;94263.22;5066961;28;20198;-79
2023/08/04 06:05:39;;;;;;;16.42;10.60;;;;;;;39.14;32.71;94261.38;5068151;28;20649;-78
2023/08/04 06:08:06;;;;;;;16.23;10.20;;;;;;;39.21;32.28;94268.56;5068475;28;20198;-82
2023/08/04 06:10:33;;;;;;;13.02;10.10;;;;;;;38.40;33.57;94267.81;5068707;28;20256;-84
2023/08/04 06:13:02;;;;;;;11.60;9.68;;;;;;;38.34;33.42;94267.03;5068124;28;20962;-82
2023/08/04 06:15:29;;;;;;;11.13;9.98;;;;;;;38.04;33.93;94264.75;5068364;28;20209;-79
2023/08/04 06:17:56;;;;;;;12.25;10.25;;;;;;;39.16;32.59;94267.28;5068330;28;20200;-78
2023/08/04 06:20:23;;;;;;;10.98;9.80;;;;;;;38.86;32.50;94260.72;5068239;28;20199;-77
2023/08/04 06:22:50;;;;;;;11.38;10.18;;;;;;;40.13;31.42;94266.88;5068018;28;20203;-76
2023/08/04 06:25:17;;;;;;;11.68;10.48;;;;;;;38.63;32.51;94277.81;5066818;28;20207;-76
2023/08/04 06:27:43;;;;;;;14.55;10.90;;;;;;;37.70;34.49;94266.06;5068057;28;20199;-76
2023/08/04 06:30:14;;;;;;;13.65;11.32;;;;;;;36.95;35.69;94265.59;5068038;28;20654;-77
2023/08/04 06:32:40;;;;;;;11.63;10.43;;;;;;;37.02;35.72;94258.72;5067138;28;20235;-77
2023/08/04 06:35:08;;;;;;;14.00;10.82;;;;;;;37.72;34.42;94263.50;5065978;28;20629;-74
2023/08/04 06:37:36;;;;;;;12.50;10.48;;;;;;;38.50;34.18;94263.41;5060955;28;20206;-81
2023/08/04 06:40:04;;;;;;;15.93;10.73;;;;;;;38.85;34.06;94264.84;5066799;28;20250;-78
2023/08/04 06:42:31;;;;;;;12.25;10.65;;;;;;;38.01;34.09;94268.59;5064367;28;20257;-78
2023/08/04 06:44:58;;;;;;;14.90;10.63;;;;;;;37.65;34.90;94264.00;5068610;28;20226;-78
2023/08/04 06:47:26;;;;;;;16.67;11.13;;;;;;;38.06;34.21;94265.00;5064964;28;20210;-75
2023/08/04 06:49:53;;;;;;;11.48;8.52;;;;;;;35.22;36.37;94264.38;5067040;28;20740;-77
2023/08/04 06:52:20;;;;;;;15.13;10.32;;;;;;;36.10;36.83;94259.22;5066515;28;20199;-78
2023/08/04 06:54:47;;;;;;;15.57;11.38;;;;;;;35.94;37.75;94263.50;5071264;28;20315;-76
2023/08/04 06:57:13;;;;;;;10.38;9.20;;;;;;;35.27;36.95;94260.84;5071530;28;20191;-78
2023/08/04 06:59:40;;;;;;;13.13;9.85;;;;;;;35.41;38.16;94256.38;5071488;28;20313;-75
2023/08/04 07:02:07;;;;;;;12.07;10.30;;;;;;;35.84;37.81;94260.09;5071210;28;20718;-77
2023/08/04 07:04:35;;;;;;;14.13;10.85;;;;;;;35.44;37.93;94254.59;5070840;28;20195;-77
2023/08/04 07:07:02;;;;;;;16.38;11.88;;;;;;;35.49;38.77;94251.06;5070823;28;20195;-77
2023/08/04 07:09:29;;;;;;;11.63;9.45;;;;;;;35.48;38.19;94249.53;5068883;28;21061;-74
2023/08/04 07:11:55;;;;;;;14.95;11.68;;;;;;;36.45;37.02;94248.44;5070426;28;20673;-76
2023/08/04 07:14:22;;;;;;;12.45;10.65;;;;;;;36.50;37.01;94246.91;5070698;28;20347;-76
2023/08/04 07:16:49;;;;;;;14.40;10.98;;;;;;;36.55;36.63;94249.00;5070130;28;20330;-75
2023/08/04 07:19:16;;;;;;;12.48;9.88;;;;;;;37.68;34.85;94243.16;5069654;28;20693;-76
2023/08/04 07:21:44;;;;;;;10.25;9.18;;;;;;;38.06;34.17;94250.84;5070560;28;20634;-75
2023/08/04 07:24:12;;;;;;;9.60;8.45;;;;;;;36.28;35.87;94250.41;5070289;28;20286;-76
2023/08/04 07:26:39;;;;;;;9.68;8.45;;;;;;;36.87;34.08;94246.84;5067530;28;20203;-77
2023/08/04 07:29:05;;;;;;;10.45;9.18;;;;;;;36.52;34.98;94250.78;5071154;28;20199;-75
2023/08/04 07:31:37;;;;;;;9.30;8.35;;;;;;;36.32;35.74;94242.47;5070980;28;20202;-75
2023/08/04 07:34:04;;;;;;;11.85;9.05;;;;;;;36.11;35.76;94241.03;5062458;28;20657;-75
2023/08/04 07:36:30;;;;;;;10.43;8.52;;;;;;;36.40;35.35;94254.81;5070660;28;20693;-76
2023/08/04 07:38:59;;;;;;;10.70;8.95;;;;;;;35.75;36.12;94249.00;5070768;28;20230;-76
2023/08/04 07:41:26;;;;;;;12.05;8.38;;;;;;;36.68;35.34;94244.44;5071234;28;20237;-76
2023/08/04 07:43:53;;;;;;;12.68;8.50;;;;;;;36.96;34.63;94244.56;5070514;28;20632;-76
2023/08/04 07:46:23;;;;;;;10.30;8.55;;;;;;;36.63;34.20;94233.09;5078717;28;20665;-74
2023/08/04 07:48:50;;;;;;;9.02;8.13;;;;;;;36.76;34.87;94241.94;5067798;28;20223;-75
2023/08/04 07:51:17;;;;;;;9.38;8.05;;;;;;;36.34;34.99;94239.94;5071195;28;20214;-75
2023/08/04 07:53:44;;;;;;;9.38;8.18;;;;;;;34.41;38.13;94244.75;5070462;28;20203;-77
2023/08/04 07:56:13;;;;;;;8.85;7.93;;;;;;;34.55;37.40;94252.34;5070338;28;20229;-78
2023/08/04 07:58:40;;;;;;;9.75;8.73;;;;;;;34.39;38.49;94244.44;5070350;28;20203;-76
2023/08/04 08:01:07;;;;;;;9.38;8.48;;;;;;;35.46;37.17;94241.56;5072845;28;20211;-75
2023/08/04 08:03:34;;;;;;;9.65;8.00;;;;;;;35.43;36.24;94238.97;5069996;28;20662;-76
2023/08/04 08:06:02;;;;;;;10.82;8.43;;;;;;;35.42;36.61;94234.59;5070564;28;20213;-77
2023/08/04 08:08:30;;;;;;;8.68;7.88;;;;;;;35.46;36.69;94237.97;5070518;28;20207;-74
2023/08/04 08:11:02;;;;;;;8.80;7.90;;;;;;;34.48;37.86;94244.31;5070695;28;20203;-76
2023/08/04 08:13:30;;;;;;;9.27;8.25;;;;;;;34.17;38.86;94241.28;5067684;28;20222;-75
2023/08/04 08:15:57;;;;;;;9.75;8.15;;;;;;;34.29;37.91;94236.66;5066093;28;20199;-76
2023/08/04 08:18:24;;;;;;;11.18;8.10;;;;;;;34.19;38.92;94244.41;5070035;28;20282;-78
2023/08/04 08:20:51;;;;;;;9.32;7.82;;;;;;;34.55;37.81;94238.25;5069880;28;20283;-76
2023/08/04 08:23:17;;;;;;;9.57;7.82;;;;;;;34.56;38.41;94234.19;5069293;28;20721;-76
2023/08/04 08:25:44;;;;;;;8.43;7.65;;;;;;;35.04;36.86;94236.53;5069189;28;20657;-76
2023/08/04 08:28:11;;;;;;;9.60;8.23;;;;;;;35.96;35.95;94225.03;5069134;28;20202;-75
2023/08/04 08:30:39;;;;;;;9.38;8.40;;;;;;;36.13;35.10;94224.38;5069840;28;20191;-74
2023/08/04 08:33:09;;;;;;;12.13;8.02;;;;;;;35.07;36.60;94226.31;5067051;28;21140;-75
2023/08/04 08:35:36;;;;;;;8.95;8.05;;;;;;;35.12;37.37;94231.25;5068887;28;20225;-74
2023/08/04 08:38:03;;;;;;;8.88;7.50;;;;;;;34.91;37.49;94225.66;5069708;28;20280;-75
2023/08/04 08:40:30;;;;;;;8.40;7.47;;;;;;;34.92;36.64;94237.69;5068588;28;20238;-75
2023/08/04 08:42:58;;;;;;;8.32;7.43;;;;;;;35.54;35.93;94224.97;5069508;28;20227;-75
2023/08/04 08:45:27;;;;;;;8.68;7.57;;;;;;;34.76;37.59;94227.78;5069446;28;20219;-75
2023/08/04 08:47:56;;;;;;;8.90;8.00;;;;;;;35.30;37.17;94224.50;5076157;28;20203;-74
2023/08/04 08:50:24;;;;;;;9.57;7.90;;;;;;;34.53;37.67;94226.72;5069221;28;20764;-76
2023/08/04 08:52:58;;;;;;;9.23;8.32;;;;;;;34.32;38.63;94219.53;5069853;28;20213;-76
2023/08/04 08:55:27;;;;;;;10.68;8.60;;;;;;;34.56;38.52;94222.94;5069376;28;20963;-75
2023/08/04 08:57:56;;;;;;;9.02;7.45;;;;;;;33.70;39.14;94226.28;5069381;28;20242;-75
2023/08/04 09:00:23;;;;;;;9.55;8.65;;;;;;;34.00;39.05;94215.00;5071464;28;20231;-74
2023/08/04 09:02:51;;;;;;;9.70;8.68;;;;;;;34.23;38.56;94222.47;5069274;28;20210;-74
2023/08/04 09:05:21;;;;;;;14.25;8.27;;;;;;;34.40;38.72;94209.44;5069079;28;20211;-76
2023/08/04 09:07:49;;;;;;;10.90;8.10;;;;;;;34.23;39.35;94217.63;5068607;28;20237;-75
2023/08/04 09:10:16;;;;;;;10.27;8.77;;;;;;;33.83;39.21;94212.72;5069207;28;20207;-74
2023/08/04 09:12:44;;;;;;;14.32;8.73;;;;;;;34.08;38.85;94213.31;5068256;28;20223;-76
2023/08/04 09:15:12;;;;;;;9.27;8.20;;;;;;;34.70;38.83;94198.00;5069000;28;20207;-75
2023/08/04 09:17:40;;;;;;;9.45;8.50;;;;;;;35.07;37.14;94184.84;5068573;28;20302;-75
2023/08/04 09:20:09;;;;;;;12.18;8.80;;;;;;;35.15;37.91;94193.59;5061715;28;20227;-73
2023/08/04 09:22:41;;;;;;;8.98;7.95;;;;;;;34.74;37.66;94193.69;5065145;28;20199;-75
2023/08/04 09:25:09;;;;;;;9.55;8.10;;;;;;;35.40;37.07;94181.56;5067809;28;20687;-74
2023/08/04 09:27:38;;;;;;;9.48;8.57;;;;;;;35.14;37.79;94187.19;5065758;28;20669;-75
2023/08/04 09:30:07;;;;;;;12.68;8.65;;;;;;;35.58;36.92;94175.56;5066931;28;20288;-75
2023/08/04 09:32:40;;;;;;;9.60;8.60;;;;;;;35.28;37.12;94191.97;5064442;28;20231;-75
2023/08/04 09:35:09;;;;;;;10.00;8.93;;;;;;;35.02;37.88;94185.56;5065880;28;20215;-75
2023/08/04 09:37:39;;;;;;;8.88;7.97;;;;;;;34.63;37.64;94198.44;5067621;28;20737;-73
2023/08/04 09:40:13;;;;;;;13.43;8.65;;;;;;;34.23;38.47;94183.09;5068672;28;20712;-75
2023/08/04 09:42:41;;;;;;;10.40;8.00;;;;;;;34.66;38.28;94181.34;5058119;28;20616;-75
2023/08/04 09:45:12;;;;;;;12.95;9.05;;;;;;;35.34;36.71;94171.53;5068715;28;20199;-75
2023/08/04 09:47:38;;;;;;;9.27;8.35;;;;;;;35.67;36.09;94171.00;5067043;28;20642;-76
2023/08/04 09:50:10;;;;;;;9.68;8.30;;;;;;;35.19;37.25;94161.13;5067835;28;20662;-75
2023/08/04 09:52:37;;;;;;;8.73;7.40;;;;;;;34.55;37.42;94173.53;5068750;28;20253;-74
2023/08/04 09:55:09;;;;;;;8.68;7.78;;;;;;;35.35;35.86;94167.44;5068515;28;20618;-76
2023/08/04 09:57:36;;;;;;;8.38;7.50;;;;;;;35.62;34.87;94161.22;5069084;28;20629;-76
2023/08/04 10:00:05;;;;;;;8.93;8.02;;;;;;;35.36;35.41;94166.16;5068363;28;20226;-75
2023/08/04 10:02:33;;;;;;;10.57;8.00;;;;;;;35.19;35.87;94172.41;5068800;28;20213;-75
2023/08/04 10:05:00;;;;;;;11.05;8.30;;;;;;;35.10;36.37;94158.50;5068140;28;20271;-75
2023/08/04 10:07:29;;;;;;;12.15;8.57;;;;;;;35.82;36.21;94158.31;5068320;28;20214;-76
2023/08/04 10:09:56;;;;;;;8.85;7.97;;;;;;;35.87;35.41;94163.22;5067904;28;20242;-77
2023/08/04 10:12:25;;;;;;;8.75;7.65;;;;;;;36.08;32.98;94158.22;5068587;28;20682;-76
2023/08/04 10:15:18;;;;;;;8.40;7.60;;;;;;;36.29;32.93;94147.53;5065768;28;20332;-77
2023/08/04 10:18:29;;;;;;;8.88;7.95;;;;;;;36.15;33.00;94143.59;5063429;28;20202;-80
2023/08/04 10:21:01;;;;;;;8.18;7.47;;;;;;;36.62;32.80;94161.78;5060197;28;20246;-75
2023/08/04 10:23:31;;;;;;;12.73;8.35;;;;;;;36.57;32.58;94156.88;5068593;28;20214;-74
2023/08/04 10:26:02;;;;;;;10.13;7.80;;;;;;;36.60;32.04;94155.88;5071261;28;20210;-76
2023/08/04 10:28:31;;;;;;;9.05;8.13;;;;;;;36.23;32.97;94143.91;5063938;28;20767;-74
2023/08/04 10:31:04;;;;;;;9.73;8.15;;;;;;;35.91;33.96;94152.47;5071650;28;20218;-73
2023/08/04 10:33:34;;;;;;;9.00;7.85;;;;;;;36.30;34.11;94151.91;5070438;28;20304;-75
2023/08/04 10:36:07;;;;;;;11.48;7.82;;;;;;;36.33;33.18;94153.72;5071790;28;20199;-74
2023/08/04 10:38:45;;;;;;;8.60;7.80;;;;;;;35.97;32.81;94158.91;5071663;28;20654;-75
2023/08/04 10:41:12;;;;;;;8.80;7.95;;;;;;;36.36;32.99;94152.69;5068621;28;20326;-75
2023/08/04 10:43:41;;;;;;;8.93;8.02;;;;;;;36.77;31.93;94141.03;5069772;28;20214;-75
2023/08/04 10:46:11;;;;;;;8.93;7.88;;;;;;;36.62;32.23;94136.38;5072893;28;20255;-72
2023/08/04 10:48:40;;;;;;;9.02;8.13;;;;;;;36.40;32.48;94136.28;5072110;28;20245;-75
2023/08/04 10:51:08;;;;;;;8.93;8.10;;;;;;;36.25;32.63;94130.84;5071586;28;20615;-74
2023/08/04 10:53:36;;;;;;;9.35;8.32;;;;;;;36.50;32.14;94131.19;5070175;28;20641;-75
2023/08/04 10:56:08;;;;;;;8.68;7.80;;;;;;;36.20;32.30;94136.47;5070484;28;20235;-74
2023/08/04 10:58:35;;;;;;;10.77;8.50;;;;;;;36.10;33.19;94133.06;5068654;28;20565;-72
2023/08/04 11:01:03;;;;;;;8.85;7.95;;;;;;;36.20;32.84;94133.63;5070740;28;20318;-75
2023/08/04 11:03:33;;;;;;;8.88;7.97;;;;;;;36.64;32.15;94122.50;5071566;28;20207;-74
2023/08/04 11:06:00;;;;;;;9.43;8.35;;;;;;;36.18;33.34;94136.97;5071556;28;20294;-70
2023/08/04 11:08:27;;;;;;;9.60;8.60;;;;;;;36.28;33.33;94131.91;5071463;28;20573;-76
2023/08/04 11:10:56;;;;;;;11.23;8.70;;;;;;;36.04;33.26;94120.22;5070154;28;20221;-75
2023/08/04 11:13:24;;;;;;;11.15;8.25;;;;;;;36.16;33.91;94119.00;5069604;28;20267;-75
2023/08/04 11:15:53;;;;;;;10.18;8.40;;;;;;;36.01;33.69;94124.06;5070320;28;20214;-72
2023/08/04 11:18:24;;;;;;;9.18;8.27;;;;;;;35.85;33.39;94131.91;5070414;28;20209;-78
2023/08/04 11:20:51;;;;;;;11.43;8.30;;;;;;;35.93;33.66;94116.09;5071421;28;20403;-75
2023/08/04 11:23:25;;;;;;;9.15;8.23;;;;;;;35.09;33.33;94117.53;5069073;28;20203;-75
2023/08/04 11:25:52;;;;;;;9.07;8.25;;;;;;;35.31;34.06;94102.88;5068726;28;20277;-75
2023/08/04 11:28:20;;;;;;;8.73;7.80;;;;;;;35.91;32.89;94120.69;5070259;28;20203;-73
2023/08/04 11:30:46;;;;;;;9.18;8.27;;;;;;;36.08;32.60;94115.91;5070540;28;20211;-74